sensor_id;sensor_type;location;lat;lon;timestamp;P1;durP1;ratioP1;P2;durP2;ratioP2
79755;SDS011;69239;50.678;12.280;2024-02-21T00:01:22;7.97;;;1.90;;
79755;SDS011;69239;50.678;12.280;2024-02-21T00:03:47;4.80;;;2.30;;
79755;SDS011;69239;50.678;12.280;2024-02-21T00:06:13;8.32;;;2.38;;
79755;SDS011;69239;50.678;12.280;2024-02-21T00:08:38;5.57;;;2.20;;
79755;SDS011;69239;50.678;12.280;2024-02-21T00:11:03;9.43;;;2.80;;
79755;SDS011;69239;50.678;12.280;2024-02-21T00:13:28;11.90;;;2.57;;
79755;SDS011;69239;50.678;12.280;2024-02-21T00:15:54;7.80;;;2.15;;
79755;SDS011;69239;50.678;12.280;2024-02-21T00:18:19;12.63;;;2.67;;
79755;SDS011;69239;50.678;12.280;2024-02-21T00:20:44;7.97;;;2.10;;
79755;SDS011;69239;50.678;12.280;2024-02-21T00:23:10;6.43;;;1.90;;
79755;SDS011;69239;50.678;12.280;2024-02-21T00:25:35;8.20;;;2.87;;
79755;SDS011;69239;50.678;12.280;2024-02-21T00:28:00;8.30;;;2.43;;
79755;SDS011;69239;50.678;12.280;2024-02-21T00:30:25;9.40;;;3.80;;
79755;SDS011;69239;50.678;12.280;2024-02-21T00:32:51;10.30;;;2.30;;
79755;SDS011;69239;50.678;12.280;2024-02-21T00:35:16;6.43;;;2.57;;
79755;SDS011;69239;50.678;12.280;2024-02-21T00:37:41;10.73;;;2.60;;
79755;SDS011;69239;50.678;12.280;2024-02-21T00:40:07;12.00;;;2.60;;
79755;SDS011;69239;50.678;12.280;2024-02-21T00:42:32;11.77;;;3.65;;
79755;SDS011;69239;50.678;12.280;2024-02-21T00:44:57;12.97;;;2.80;;
79755;SDS011;69239;50.678;12.280;2024-02-21T00:47:23;13.35;;;2.83;;
79755;SDS011;69239;50.678;12.280;2024-02-21T00:49:48;13.37;;;3.23;;
79755;SDS011;69239;50.678;12.280;2024-02-21T00:52:13;7.00;;;2.33;;
79755;SDS011;69239;50.678;12.280;2024-02-21T00:54:38;8.77;;;2.67;;
79755;SDS011;69239;50.678;12.280;2024-02-21T00:57:04;8.70;;;2.85;;
79755;SDS011;69239;50.678;12.280;2024-02-21T00:59:29;9.38;;;3.00;;
79755;SDS011;69239;50.678;12.280;2024-02-21T01:01:54;6.50;;;2.63;;
79755;SDS011;69239;50.678;12.280;2024-02-21T01:04:20;10.43;;;2.40;;
79755;SDS011;69239;50.678;12.280;2024-02-21T01:06:45;11.68;;;3.33;;
79755;SDS011;69239;50.678;12.280;2024-02-21T01:09:11;11.13;;;2.87;;
79755;SDS011;69239;50.678;12.280;2024-02-21T01:11:36;7.30;;;2.80;;
79755;SDS011;69239;50.678;12.280;2024-02-21T01:14:01;8.65;;;2.97;;
79755;SDS011;69239;50.678;12.280;2024-02-21T01:16:27;10.02;;;2.90;;
79755;SDS011;69239;50.678;12.280;2024-02-21T01:18:52;11.40;;;3.37;;
79755;SDS011;69239;50.678;12.280;2024-02-21T01:21:17;9.03;;;2.93;;
79755;SDS011;69239;50.678;12.280;2024-02-21T01:23:43;9.20;;;3.67;;
79755;SDS011;69239;50.678;12.280;2024-02-21T01:26:08;8.27;;;2.87;;
79755;SDS011;69239;50.678;12.280;2024-02-21T01:28:33;5.97;;;2.77;;
79755;SDS011;69239;50.678;12.280;2024-02-21T01:30:59;9.75;;;3.72;;
79755;SDS011;69239;50.678;12.280;2024-02-21T01:33:24;6.67;;;2.73;;
79755;SDS011;69239;50.678;12.280;2024-02-21T01:35:49;10.93;;;3.00;;
79755;SDS011;69239;50.678;12.280;2024-02-21T01:38:15;8.50;;;3.47;;
79755;SDS011;69239;50.678;12.280;2024-02-21T01:40:40;8.87;;;2.80;;
79755;SDS011;69239;50.678;12.280;2024-02-21T01:43:14;12.47;;;2.90;;
79755;SDS011;69239;50.678;12.280;2024-02-21T01:45:41;8.80;;;2.92;;
79755;SDS011;69239;50.678;12.280;2024-02-21T01:48:06;7.90;;;2.55;;
79755;SDS011;69239;50.678;12.280;2024-02-21T01:50:32;10.73;;;2.55;;
79755;SDS011;69239;50.678;12.280;2024-02-21T01:52:58;6.70;;;3.05;;
79755;SDS011;69239;50.678;12.280;2024-02-21T01:55:24;4.15;;;2.03;;
79755;SDS011;69239;50.678;12.280;2024-02-21T01:57:49;10.37;;;3.10;;
79755;SDS011;69239;50.678;12.280;2024-02-21T02:00:15;9.57;;;3.00;;
79755;SDS011;69239;50.678;12.280;2024-02-21T02:02:41;12.35;;;3.10;;
79755;SDS011;69239;50.678;12.280;2024-02-21T02:05:07;7.15;;;3.05;;
79755;SDS011;69239;50.678;12.280;2024-02-21T02:07:32;11.40;;;2.88;;
79755;SDS011;69239;50.678;12.280;2024-02-21T02:09:58;9.17;;;3.40;;
79755;SDS011;69239;50.678;12.280;2024-02-21T02:12:23;14.25;;;3.95;;
79755;SDS011;69239;50.678;12.280;2024-02-21T02:15:01;7.57;;;3.17;;
79755;SDS011;69239;50.678;12.280;2024-02-21T02:17:30;11.77;;;2.97;;
79755;SDS011;69239;50.678;12.280;2024-02-21T02:19:57;9.18;;;3.13;;
79755;SDS011;69239;50.678;12.280;2024-02-21T02:22:24;11.70;;;3.65;;
79755;SDS011;69239;50.678;12.280;2024-02-21T02:24:53;8.65;;;2.90;;
79755;SDS011;69239;50.678;12.280;2024-02-21T02:27:19;7.97;;;3.30;;
79755;SDS011;69239;50.678;12.280;2024-02-21T02:29:44;9.77;;;4.40;;
79755;SDS011;69239;50.678;12.280;2024-02-21T02:32:09;11.87;;;4.33;;
79755;SDS011;69239;50.678;12.280;2024-02-21T02:34:35;9.43;;;2.97;;
79755;SDS011;69239;50.678;12.280;2024-02-21T02:37:00;10.40;;;3.00;;
79755;SDS011;69239;50.678;12.280;2024-02-21T02:39:25;13.03;;;4.13;;
79755;SDS011;69239;50.678;12.280;2024-02-21T02:41:51;11.85;;;3.30;;
79755;SDS011;69239;50.678;12.280;2024-02-21T02:44:16;12.27;;;3.20;;
79755;SDS011;69239;50.678;12.280;2024-02-21T02:46:41;8.53;;;3.20;;
79755;SDS011;69239;50.678;12.280;2024-02-21T02:49:07;9.45;;;3.58;;
79755;SDS011;69239;50.678;12.280;2024-02-21T02:51:32;12.03;;;3.40;;
79755;SDS011;69239;50.678;12.280;2024-02-21T02:53:59;7.88;;;2.95;;
79755;SDS011;69239;50.678;12.280;2024-02-21T02:56:24;11.05;;;3.90;;
79755;SDS011;69239;50.678;12.280;2024-02-21T02:58:49;12.67;;;3.03;;
79755;SDS011;69239;50.678;12.280;2024-02-21T03:01:14;10.43;;;3.50;;
79755;SDS011;69239;50.678;12.280;2024-02-21T03:03:40;10.97;;;3.73;;
79755;SDS011;69239;50.678;12.280;2024-02-21T03:06:05;12.80;;;3.53;;
79755;SDS011;69239;50.678;12.280;2024-02-21T03:08:30;14.13;;;3.83;;
79755;SDS011;69239;50.678;12.280;2024-02-21T03:10:56;9.45;;;3.00;;
79755;SDS011;69239;50.678;12.280;2024-02-21T03:13:21;10.50;;;3.60;;
79755;SDS011;69239;50.678;12.280;2024-02-21T03:15:46;9.13;;;3.50;;
79755;SDS011;69239;50.678;12.280;2024-02-21T03:18:11;11.10;;;3.57;;
79755;SDS011;69239;50.678;12.280;2024-02-21T03:20:37;9.87;;;3.10;;
79755;SDS011;69239;50.678;12.280;2024-02-21T03:23:02;9.50;;;3.63;;
79755;SDS011;69239;50.678;12.280;2024-02-21T03:25:27;11.07;;;3.80;;
79755;SDS011;69239;50.678;12.280;2024-02-21T03:27:52;8.77;;;3.50;;
79755;SDS011;69239;50.678;12.280;2024-02-21T03:30:18;13.35;;;4.18;;
79755;SDS011;69239;50.678;12.280;2024-02-21T03:32:43;7.33;;;3.67;;
79755;SDS011;69239;50.678;12.280;2024-02-21T03:35:08;10.47;;;3.37;;
79755;SDS011;69239;50.678;12.280;2024-02-21T03:37:34;13.77;;;3.38;;
79755;SDS011;69239;50.678;12.280;2024-02-21T03:39:59;11.07;;;3.53;;
79755;SDS011;69239;50.678;12.280;2024-02-21T03:42:24;13.43;;;3.80;;
79755;SDS011;69239;50.678;12.280;2024-02-21T03:44:50;12.23;;;4.15;;
79755;SDS011;69239;50.678;12.280;2024-02-21T03:47:15;10.30;;;3.40;;
79755;SDS011;69239;50.678;12.280;2024-02-21T03:49:40;8.73;;;3.53;;
79755;SDS011;69239;50.678;12.280;2024-02-21T03:52:05;8.57;;;3.37;;
79755;SDS011;69239;50.678;12.280;2024-02-21T03:54:31;9.45;;;3.80;;
79755;SDS011;69239;50.678;12.280;2024-02-21T03:56:56;7.30;;;3.37;;
79755;SDS011;69239;50.678;12.280;2024-02-21T03:59:22;13.93;;;4.43;;
79755;SDS011;69239;50.678;12.280;2024-02-21T04:01:51;11.73;;;4.00;;
79755;SDS011;69239;50.678;12.280;2024-02-21T04:04:17;9.68;;;4.03;;
79755;SDS011;69239;50.678;12.280;2024-02-21T04:06:46;13.68;;;4.63;;
79755;SDS011;69239;50.678;12.280;2024-02-21T04:09:15;9.57;;;3.55;;
79755;SDS011;69239;50.678;12.280;2024-02-21T04:11:41;13.23;;;4.13;;
79755;SDS011;69239;50.678;12.280;2024-02-21T04:14:06;13.17;;;4.80;;
79755;SDS011;69239;50.678;12.280;2024-02-21T04:16:32;11.55;;;4.18;;
79755;SDS011;69239;50.678;12.280;2024-02-21T04:18:57;7.83;;;3.20;;
79755;SDS011;69239;50.678;12.280;2024-02-21T04:21:23;12.48;;;4.68;;
79755;SDS011;69239;50.678;12.280;2024-02-21T04:23:48;10.20;;;3.73;;
79755;SDS011;69239;50.678;12.280;2024-02-21T04:26:13;9.20;;;3.73;;
79755;SDS011;69239;50.678;12.280;2024-02-21T04:28:38;13.40;;;4.00;;
79755;SDS011;69239;50.678;12.280;2024-02-21T04:31:04;10.05;;;3.85;;
79755;SDS011;69239;50.678;12.280;2024-02-21T04:33:29;10.53;;;3.60;;
79755;SDS011;69239;50.678;12.280;2024-02-21T04:35:54;11.17;;;4.23;;
79755;SDS011;69239;50.678;12.280;2024-02-21T04:38:19;8.17;;;4.43;;
79755;SDS011;69239;50.678;12.280;2024-02-21T04:40:45;10.30;;;3.57;;
79755;SDS011;69239;50.678;12.280;2024-02-21T04:43:10;9.32;;;4.03;;
79755;SDS011;69239;50.678;12.280;2024-02-21T04:45:35;9.57;;;3.57;;
79755;SDS011;69239;50.678;12.280;2024-02-21T04:48:01;13.03;;;4.13;;
79755;SDS011;69239;50.678;12.280;2024-02-21T04:50:26;9.77;;;4.23;;
79755;SDS011;69239;50.678;12.280;2024-02-21T04:52:52;12.32;;;4.20;;
79755;SDS011;69239;50.678;12.280;2024-02-21T04:55:17;13.77;;;4.03;;
79755;SDS011;69239;50.678;12.280;2024-02-21T04:57:42;10.30;;;4.37;;
79755;SDS011;69239;50.678;12.280;2024-02-21T05:00:08;13.83;;;4.07;;
79755;SDS011;69239;50.678;12.280;2024-02-21T05:02:34;14.55;;;4.70;;
79755;SDS011;69239;50.678;12.280;2024-02-21T05:04:59;10.37;;;3.90;;
79755;SDS011;69239;50.678;12.280;2024-02-21T05:07:24;7.93;;;3.23;;
79755;SDS011;69239;50.678;12.280;2024-02-21T05:09:50;12.15;;;3.65;;
79755;SDS011;69239;50.678;12.280;2024-02-21T05:12:15;10.73;;;3.83;;
79755;SDS011;69239;50.678;12.280;2024-02-21T05:14:41;17.47;;;4.30;;
79755;SDS011;69239;50.678;12.280;2024-02-21T05:17:06;9.20;;;3.50;;
79755;SDS011;69239;50.678;12.280;2024-02-21T05:19:31;9.87;;;3.00;;
79755;SDS011;69239;50.678;12.280;2024-02-21T05:21:56;12.50;;;3.93;;
79755;SDS011;69239;50.678;12.280;2024-02-21T05:24:22;13.40;;;4.03;;
79755;SDS011;69239;50.678;12.280;2024-02-21T05:26:47;11.57;;;4.10;;
79755;SDS011;69239;50.678;12.280;2024-02-21T05:29:12;12.37;;;3.97;;
79755;SDS011;69239;50.678;12.280;2024-02-21T05:34:21;10.88;;;4.05;;
79755;SDS011;69239;50.678;12.280;2024-02-21T05:36:46;10.98;;;4.07;;
79755;SDS011;69239;50.678;12.280;2024-02-21T05:39:13;7.00;;;3.72;;
79755;SDS011;69239;50.678;12.280;2024-02-21T05:41:38;8.60;;;3.25;;
79755;SDS011;69239;50.678;12.280;2024-02-21T05:44:03;10.17;;;3.97;;
79755;SDS011;69239;50.678;12.280;2024-02-21T05:46:29;10.47;;;3.67;;
79755;SDS011;69239;50.678;12.280;2024-02-21T05:48:54;10.13;;;3.63;;
79755;SDS011;69239;50.678;12.280;2024-02-21T05:51:19;8.87;;;3.30;;
79755;SDS011;69239;50.678;12.280;2024-02-21T05:53:45;11.23;;;3.92;;
79755;SDS011;69239;50.678;12.280;2024-02-21T05:56:13;9.23;;;3.77;;
79755;SDS011;69239;50.678;12.280;2024-02-21T05:58:39;10.45;;;2.72;;
79755;SDS011;69239;50.678;12.280;2024-02-21T06:01:05;10.57;;;4.07;;
79755;SDS011;69239;50.678;12.280;2024-02-21T06:03:34;9.55;;;4.32;;
79755;SDS011;69239;50.678;12.280;2024-02-21T06:06:01;10.25;;;4.18;;
79755;SDS011;69239;50.678;12.280;2024-02-21T06:08:26;8.68;;;3.63;;
79755;SDS011;69239;50.678;12.280;2024-02-21T06:10:51;10.33;;;3.90;;
79755;SDS011;69239;50.678;12.280;2024-02-21T06:13:19;11.02;;;4.05;;
79755;SDS011;69239;50.678;12.280;2024-02-21T06:15:46;7.50;;;2.50;;
79755;SDS011;69239;50.678;12.280;2024-02-21T06:18:12;9.43;;;3.53;;
79755;SDS011;69239;50.678;12.280;2024-02-21T06:20:37;8.27;;;3.67;;
79755;SDS011;69239;50.678;12.280;2024-02-21T06:23:05;12.63;;;3.90;;
79755;SDS011;69239;50.678;12.280;2024-02-21T06:25:30;7.72;;;3.22;;
79755;SDS011;69239;50.678;12.280;2024-02-21T06:27:55;6.80;;;3.00;;
79755;SDS011;69239;50.678;12.280;2024-02-21T06:30:21;9.47;;;3.90;;
79755;SDS011;69239;50.678;12.280;2024-02-21T06:32:46;13.20;;;4.00;;
79755;SDS011;69239;50.678;12.280;2024-02-21T06:35:12;9.07;;;3.90;;
79755;SDS011;69239;50.678;12.280;2024-02-21T06:37:38;11.73;;;3.88;;
79755;SDS011;69239;50.678;12.280;2024-02-21T06:40:04;10.10;;;3.90;;
79755;SDS011;69239;50.678;12.280;2024-02-21T06:42:30;10.70;;;3.50;;
79755;SDS011;69239;50.678;12.280;2024-02-21T06:44:58;9.73;;;3.60;;
79755;SDS011;69239;50.678;12.280;2024-02-21T06:47:23;10.33;;;3.40;;
79755;SDS011;69239;50.678;12.280;2024-02-21T06:49:49;6.93;;;3.47;;
79755;SDS011;69239;50.678;12.280;2024-02-21T06:52:18;10.20;;;3.38;;
79755;SDS011;69239;50.678;12.280;2024-02-21T06:54:45;10.05;;;3.78;;
79755;SDS011;69239;50.678;12.280;2024-02-21T06:57:13;11.90;;;3.83;;
79755;SDS011;69239;50.678;12.280;2024-02-21T06:59:39;9.25;;;3.17;;
79755;SDS011;69239;50.678;12.280;2024-02-21T07:02:05;12.07;;;4.10;;
79755;SDS011;69239;50.678;12.280;2024-02-21T07:04:30;8.80;;;3.97;;
79755;SDS011;69239;50.678;12.280;2024-02-21T07:06:55;11.27;;;3.60;;
79755;SDS011;69239;50.678;12.280;2024-02-21T07:09:21;9.60;;;3.67;;
79755;SDS011;69239;50.678;12.280;2024-02-21T07:11:46;11.00;;;3.63;;
79755;SDS011;69239;50.678;12.280;2024-02-21T07:14:11;9.73;;;3.97;;
79755;SDS011;69239;50.678;12.280;2024-02-21T07:16:40;8.63;;;3.90;;
79755;SDS011;69239;50.678;12.280;2024-02-21T07:19:05;7.68;;;3.40;;
79755;SDS011;69239;50.678;12.280;2024-02-21T07:21:30;9.48;;;3.88;;
79755;SDS011;69239;50.678;12.280;2024-02-21T07:23:56;9.73;;;3.87;;
79755;SDS011;69239;50.678;12.280;2024-02-21T07:26:23;12.80;;;4.78;;
79755;SDS011;69239;50.678;12.280;2024-02-21T07:28:48;11.47;;;3.03;;
79755;SDS011;69239;50.678;12.280;2024-02-21T07:31:13;15.82;;;4.10;;
79755;SDS011;69239;50.678;12.280;2024-02-21T07:33:38;7.97;;;3.20;;
79755;SDS011;69239;50.678;12.280;2024-02-21T07:36:07;8.55;;;3.25;;
79755;SDS011;69239;50.678;12.280;2024-02-21T07:38:35;9.52;;;3.47;;
79755;SDS011;69239;50.678;12.280;2024-02-21T07:41:00;9.10;;;3.30;;
79755;SDS011;69239;50.678;12.280;2024-02-21T07:43:25;7.70;;;3.23;;
79755;SDS011;69239;50.678;12.280;2024-02-21T07:45:51;8.45;;;3.10;;
79755;SDS011;69239;50.678;12.280;2024-02-21T07:48:18;8.00;;;3.65;;
79755;SDS011;69239;50.678;12.280;2024-02-21T07:50:44;9.05;;;3.30;;
79755;SDS011;69239;50.678;12.280;2024-02-21T07:53:09;13.30;;;3.92;;
79755;SDS011;69239;50.678;12.280;2024-02-21T07:55:34;10.40;;;3.00;;
79755;SDS011;69239;50.678;12.280;2024-02-21T07:58:00;8.30;;;3.27;;
79755;SDS011;69239;50.678;12.280;2024-02-21T08:00:25;7.17;;;3.40;;
79755;SDS011;69239;50.678;12.280;2024-02-21T08:02:50;10.00;;;3.20;;
79755;SDS011;69239;50.678;12.280;2024-02-21T08:05:15;9.73;;;2.57;;
79755;SDS011;69239;50.678;12.280;2024-02-21T08:07:41;9.77;;;3.40;;
79755;SDS011;69239;50.678;12.280;2024-02-21T08:10:06;7.33;;;3.13;;
79755;SDS011;69239;50.678;12.280;2024-02-21T08:12:33;5.38;;;2.28;;
79755;SDS011;69239;50.678;12.280;2024-02-21T08:14:58;8.80;;;2.77;;
79755;SDS011;69239;50.678;12.280;2024-02-21T08:17:23;9.53;;;3.40;;
79755;SDS011;69239;50.678;12.280;2024-02-21T08:19:48;7.73;;;2.83;;
79755;SDS011;69239;50.678;12.280;2024-02-21T08:22:14;6.75;;;2.70;;
79755;SDS011;69239;50.678;12.280;2024-02-21T08:24:40;9.48;;;3.00;;
79755;SDS011;69239;50.678;12.280;2024-02-21T08:27:05;11.20;;;3.80;;
79755;SDS011;69239;50.678;12.280;2024-02-21T08:29:30;7.75;;;2.83;;
79755;SDS011;69239;50.678;12.280;2024-02-21T08:31:56;11.10;;;3.00;;
79755;SDS011;69239;50.678;12.280;2024-02-21T08:34:21;5.30;;;2.33;;
79755;SDS011;69239;50.678;12.280;2024-02-21T08:36:46;8.20;;;3.03;;
79755;SDS011;69239;50.678;12.280;2024-02-21T08:39:12;4.25;;;2.45;;
79755;SDS011;69239;50.678;12.280;2024-02-21T08:41:41;5.93;;;2.13;;
79755;SDS011;69239;50.678;12.280;2024-02-21T08:44:06;6.43;;;2.28;;
79755;SDS011;69239;50.678;12.280;2024-02-21T08:46:32;8.15;;;2.53;;
79755;SDS011;69239;50.678;12.280;2024-02-21T08:48:57;5.87;;;2.10;;
79755;SDS011;69239;50.678;12.280;2024-02-21T08:51:22;6.03;;;2.53;;
79755;SDS011;69239;50.678;12.280;2024-02-21T08:53:48;7.23;;;2.70;;
79755;SDS011;69239;50.678;12.280;2024-02-21T08:56:14;5.03;;;2.30;;
79755;SDS011;69239;50.678;12.280;2024-02-21T08:58:40;9.10;;;2.58;;
79755;SDS011;69239;50.678;12.280;2024-02-21T09:01:06;5.10;;;2.20;;
79755;SDS011;69239;50.678;12.280;2024-02-21T09:03:34;6.70;;;2.53;;
79755;SDS011;69239;50.678;12.280;2024-02-21T09:06:00;9.52;;;3.22;;
79755;SDS011;69239;50.678;12.280;2024-02-21T09:08:26;8.47;;;2.70;;
79755;SDS011;69239;50.678;12.280;2024-02-21T09:10:51;7.63;;;2.33;;
79755;SDS011;69239;50.678;12.280;2024-02-21T09:13:17;7.13;;;2.55;;
79755;SDS011;69239;50.678;12.280;2024-02-21T09:15:42;6.00;;;2.40;;
79755;SDS011;69239;50.678;12.280;2024-02-21T09:18:08;5.75;;;2.33;;
79755;SDS011;69239;50.678;12.280;2024-02-21T09:20:33;7.93;;;2.13;;
79755;SDS011;69239;50.678;12.280;2024-02-21T09:22:58;4.30;;;2.23;;
79755;SDS011;69239;50.678;12.280;2024-02-21T09:25:24;9.38;;;2.45;;
79755;SDS011;69239;50.678;12.280;2024-02-21T09:27:49;8.37;;;2.40;;
79755;SDS011;69239;50.678;12.280;2024-02-21T09:30:16;5.53;;;2.50;;
79755;SDS011;69239;50.678;12.280;2024-02-21T09:32:41;6.63;;;3.20;;
79755;SDS011;69239;50.678;12.280;2024-02-21T09:35:06;5.77;;;2.53;;
79755;SDS011;69239;50.678;12.280;2024-02-21T09:37:32;7.47;;;2.30;;
79755;SDS011;69239;50.678;12.280;2024-02-21T09:40:00;5.53;;;2.20;;
79755;SDS011;69239;50.678;12.280;2024-02-21T09:45:21;7.53;;;2.40;;
79755;SDS011;69239;50.678;12.280;2024-02-21T09:50:34;6.05;;;2.20;;
79755;SDS011;69239;50.678;12.280;2024-02-21T09:53:00;6.68;;;2.22;;
79755;SDS011;69239;50.678;12.280;2024-02-21T09:55:27;7.32;;;2.47;;
79755;SDS011;69239;50.678;12.280;2024-02-21T09:57:57;7.45;;;2.30;;
79755;SDS011;69239;50.678;12.280;2024-02-21T10:00:23;5.45;;;1.98;;
79755;SDS011;69239;50.678;12.280;2024-02-21T10:02:48;6.40;;;1.77;;
79755;SDS011;69239;50.678;12.280;2024-02-21T10:05:19;3.95;;;1.52;;
79755;SDS011;69239;50.678;12.280;2024-02-21T10:07:44;8.82;;;1.98;;
79755;SDS011;69239;50.678;12.280;2024-02-21T10:10:10;5.30;;;1.98;;
79755;SDS011;69239;50.678;12.280;2024-02-21T10:12:35;5.78;;;2.08;;
79755;SDS011;69239;50.678;12.280;2024-02-21T10:15:06;5.37;;;1.90;;
79755;SDS011;69239;50.678;12.280;2024-02-21T10:17:32;4.90;;;1.88;;
79755;SDS011;69239;50.678;12.280;2024-02-21T10:20:11;5.93;;;1.75;;
79755;SDS011;69239;50.678;12.280;2024-02-21T10:22:40;5.63;;;2.50;;
79755;SDS011;69239;50.678;12.280;2024-02-21T10:25:07;7.22;;;2.00;;
79755;SDS011;69239;50.678;12.280;2024-02-21T10:27:47;6.95;;;1.92;;
79755;SDS011;69239;50.678;12.280;2024-02-21T10:30:31;6.85;;;2.08;;
79755;SDS011;69239;50.678;12.280;2024-02-21T10:32:57;5.73;;;2.20;;
79755;SDS011;69239;50.678;12.280;2024-02-21T10:35:46;7.13;;;2.20;;
79755;SDS011;69239;50.678;12.280;2024-02-21T10:38:12;5.18;;;1.88;;
79755;SDS011;69239;50.678;12.280;2024-02-21T10:40:38;6.55;;;1.63;;
79755;SDS011;69239;50.678;12.280;2024-02-21T10:43:06;4.20;;;1.73;;
79755;SDS011;69239;50.678;12.280;2024-02-21T10:45:37;4.60;;;2.22;;
79755;SDS011;69239;50.678;12.280;2024-02-21T10:50:28;4.28;;;1.92;;
79755;SDS011;69239;50.678;12.280;2024-02-21T10:53:24;8.27;;;1.95;;
79755;SDS011;69239;50.678;12.280;2024-02-21T10:56:02;3.65;;;1.73;;
79755;SDS011;69239;50.678;12.280;2024-02-21T10:59:04;4.22;;;1.60;;
79755;SDS011;69239;50.678;12.280;2024-02-21T11:01:31;4.80;;;1.77;;
79755;SDS011;69239;50.678;12.280;2024-02-21T11:04:01;7.43;;;2.22;;
79755;SDS011;69239;50.678;12.280;2024-02-21T11:06:29;7.35;;;2.30;;
79755;SDS011;69239;50.678;12.280;2024-02-21T11:09:05;4.75;;;2.08;;
79755;SDS011;69239;50.678;12.280;2024-02-21T11:11:34;4.95;;;1.60;;
79755;SDS011;69239;50.678;12.280;2024-02-21T11:16:37;4.22;;;2.00;;
79755;SDS011;69239;50.678;12.280;2024-02-21T11:19:07;5.90;;;2.22;;
79755;SDS011;69239;50.678;12.280;2024-02-21T11:21:35;7.03;;;1.90;;
79755;SDS011;69239;50.678;12.280;2024-02-21T11:24:01;4.68;;;1.60;;
79755;SDS011;69239;50.678;12.280;2024-02-21T11:26:29;6.10;;;1.58;;
79755;SDS011;69239;50.678;12.280;2024-02-21T11:29:00;4.40;;;1.60;;
79755;SDS011;69239;50.678;12.280;2024-02-21T11:31:37;4.68;;;1.70;;
79755;SDS011;69239;50.678;12.280;2024-02-21T11:34:05;3.03;;;1.35;;
79755;SDS011;69239;50.678;12.280;2024-02-21T11:36:33;7.57;;;2.28;;
79755;SDS011;69239;50.678;12.280;2024-02-21T11:39:07;5.57;;;1.83;;
79755;SDS011;69239;50.678;12.280;2024-02-21T11:41:34;3.58;;;1.42;;
79755;SDS011;69239;50.678;12.280;2024-02-21T11:44:00;2.25;;;1.30;;
79755;SDS011;69239;50.678;12.280;2024-02-21T11:46:25;2.38;;;1.50;;
79755;SDS011;69239;50.678;12.280;2024-02-21T11:48:51;5.75;;;1.60;;
79755;SDS011;69239;50.678;12.280;2024-02-21T11:51:21;5.45;;;2.13;;
79755;SDS011;69239;50.678;12.280;2024-02-21T11:53:55;4.68;;;1.50;;
79755;SDS011;69239;50.678;12.280;2024-02-21T11:56:20;5.78;;;2.17;;
79755;SDS011;69239;50.678;12.280;2024-02-21T11:58:47;5.63;;;2.05;;
79755;SDS011;69239;50.678;12.280;2024-02-21T12:01:13;7.07;;;2.60;;
79755;SDS011;69239;50.678;12.280;2024-02-21T12:03:39;4.95;;;1.70;;
79755;SDS011;69239;50.678;12.280;2024-02-21T12:06:06;4.22;;;1.75;;
79755;SDS011;69239;50.678;12.280;2024-02-21T12:08:44;3.72;;;1.40;;
79755;SDS011;69239;50.678;12.280;2024-02-21T12:11:16;4.70;;;1.73;;
79755;SDS011;69239;50.678;12.280;2024-02-21T12:14:00;4.35;;;1.80;;
79755;SDS011;69239;50.678;12.280;2024-02-21T12:16:28;3.65;;;1.63;;
79755;SDS011;69239;50.678;12.280;2024-02-21T12:18:55;5.10;;;2.20;;
79755;SDS011;69239;50.678;12.280;2024-02-21T12:21:25;5.40;;;2.50;;
79755;SDS011;69239;50.678;12.280;2024-02-21T12:26:18;5.83;;;1.67;;
79755;SDS011;69239;50.678;12.280;2024-02-21T12:28:43;2.87;;;1.07;;
79755;SDS011;69239;50.678;12.280;2024-02-21T12:31:08;4.07;;;1.60;;
79755;SDS011;69239;50.678;12.280;2024-02-21T12:33:34;6.85;;;1.73;;
79755;SDS011;69239;50.678;12.280;2024-02-21T12:36:00;5.70;;;1.75;;
79755;SDS011;69239;50.678;12.280;2024-02-21T12:38:25;4.63;;;1.63;;
79755;SDS011;69239;50.678;12.280;2024-02-21T12:40:50;5.60;;;1.75;;
79755;SDS011;69239;50.678;12.280;2024-02-21T12:43:16;5.32;;;1.67;;
79755;SDS011;69239;50.678;12.280;2024-02-21T12:45:42;5.72;;;1.90;;
79755;SDS011;69239;50.678;12.280;2024-02-21T12:48:08;5.13;;;1.50;;
79755;SDS011;69239;50.678;12.280;2024-02-21T12:50:33;3.10;;;1.40;;
79755;SDS011;69239;50.678;12.280;2024-02-21T12:52:58;3.47;;;1.50;;
79755;SDS011;69239;50.678;12.280;2024-02-21T12:55:23;3.53;;;1.40;;
79755;SDS011;69239;50.678;12.280;2024-02-21T12:57:49;4.60;;;1.67;;
79755;SDS011;69239;50.678;12.280;2024-02-21T13:00:16;3.70;;;1.45;;
79755;SDS011;69239;50.678;12.280;2024-02-21T13:02:41;2.75;;;1.60;;
79755;SDS011;69239;50.678;12.280;2024-02-21T13:05:07;6.30;;;1.83;;
79755;SDS011;69239;50.678;12.280;2024-02-21T13:07:33;3.33;;;1.25;;
79755;SDS011;69239;50.678;12.280;2024-02-21T13:09:58;6.50;;;1.80;;
79755;SDS011;69239;50.678;12.280;2024-02-21T13:12:24;5.20;;;1.57;;
79755;SDS011;69239;50.678;12.280;2024-02-21T13:14:53;3.85;;;1.23;;
79755;SDS011;69239;50.678;12.280;2024-02-21T13:17:19;5.18;;;1.33;;
79755;SDS011;69239;50.678;12.280;2024-02-21T13:19:44;4.32;;;1.45;;
79755;SDS011;69239;50.678;12.280;2024-02-21T13:22:09;2.70;;;1.07;;
79755;SDS011;69239;50.678;12.280;2024-02-21T13:24:35;5.10;;;1.50;;
79755;SDS011;69239;50.678;12.280;2024-02-21T13:27:00;3.30;;;1.53;;
79755;SDS011;69239;50.678;12.280;2024-02-21T13:29:25;4.17;;;1.27;;
79755;SDS011;69239;50.678;12.280;2024-02-21T13:31:50;2.93;;;1.03;;
79755;SDS011;69239;50.678;12.280;2024-02-21T13:34:16;3.97;;;1.70;;
79755;SDS011;69239;50.678;12.280;2024-02-21T13:36:42;4.03;;;1.60;;
79755;SDS011;69239;50.678;12.280;2024-02-21T13:39:10;6.00;;;1.50;;
79755;SDS011;69239;50.678;12.280;2024-02-21T13:41:40;5.35;;;1.45;;
79755;SDS011;69239;50.678;12.280;2024-02-21T13:44:07;4.47;;;1.13;;
79755;SDS011;69239;50.678;12.280;2024-02-21T13:46:32;3.03;;;1.15;;
79755;SDS011;69239;50.678;12.280;2024-02-21T13:49:02;3.70;;;1.13;;
79755;SDS011;69239;50.678;12.280;2024-02-21T13:51:32;3.72;;;1.40;;
79755;SDS011;69239;50.678;12.280;2024-02-21T13:54:01;4.90;;;1.27;;
79755;SDS011;69239;50.678;12.280;2024-02-21T13:56:26;3.33;;;1.40;;
79755;SDS011;69239;50.678;12.280;2024-02-21T13:58:51;4.00;;;1.35;;
79755;SDS011;69239;50.678;12.280;2024-02-21T14:01:17;4.50;;;1.63;;
79755;SDS011;69239;50.678;12.280;2024-02-21T14:03:42;3.67;;;0.97;;
79755;SDS011;69239;50.678;12.280;2024-02-21T14:06:07;3.00;;;1.20;;
79755;SDS011;69239;50.678;12.280;2024-02-21T14:08:32;3.10;;;1.30;;
79755;SDS011;69239;50.678;12.280;2024-02-21T14:10:59;4.55;;;1.45;;
79755;SDS011;69239;50.678;12.280;2024-02-21T14:13:25;3.28;;;1.13;;
79755;SDS011;69239;50.678;12.280;2024-02-21T14:15:50;5.78;;;1.95;;
79755;SDS011;69239;50.678;12.280;2024-02-21T14:18:16;4.80;;;1.23;;
79755;SDS011;69239;50.678;12.280;2024-02-21T14:20:42;3.95;;;1.30;;
79755;SDS011;69239;50.678;12.280;2024-02-21T14:23:08;2.97;;;1.33;;
79755;SDS011;69239;50.678;12.280;2024-02-21T14:25:33;7.20;;;1.80;;
79755;SDS011;69239;50.678;12.280;2024-02-21T14:27:58;5.40;;;1.50;;
79755;SDS011;69239;50.678;12.280;2024-02-21T14:30:25;5.13;;;1.27;;
79755;SDS011;69239;50.678;12.280;2024-02-21T14:32:51;3.95;;;1.17;;
79755;SDS011;69239;50.678;12.280;2024-02-21T14:35:16;5.43;;;1.23;;
79755;SDS011;69239;50.678;12.280;2024-02-21T14:37:41;3.53;;;1.02;;
79755;SDS011;69239;50.678;12.280;2024-02-21T14:40:07;3.22;;;1.15;;
79755;SDS011;69239;50.678;12.280;2024-02-21T14:42:32;4.70;;;1.30;;